Time;durP1;ratioP1;P1;durP2;ratioP2;P2;SDS_P1;SDS_P2;PMS_P1;PMS_P2;Temp;Humidity;BMP_temperature;BMP_pressure;BME280_temperature;BME280_humidity;BME280_pressure;Samples;Min_cycle;Max_cycle;Signal;HPM_P1;HPM_P2
2023/01/29 00:01:03;;;;;;;49.28;17.77;;;;;;;;;;5031317;28;20087;-75
2023/01/29 00:03:29;;;;;;;74.75;21.95;;;;;;;;;;5030941;28;20539;-75
2023/01/29 00:05:55;;;;;;;100.18;25.23;;;;;;;;;;5032529;28;20037;-74
2023/01/29 00:08:22;;;;;;;99.68;25.13;;;;;;;;;;5031940;28;20419;-74
2023/01/29 00:10:48;;;;;;;89.00;21.55;;;;;;;;;;5032378;28;20041;-75
2023/01/29 00:13:14;;;;;;;71.18;20.17;;;;;;;;;;5030658;28;20041;-75
2023/01/29 00:15:40;;;;;;;65.85;17.58;;;;;;;;;;5032183;28;20044;-74
2023/01/29 00:18:06;;;;;;;95.45;23.38;;;;;;;;;;5030737;28;20045;-74
2023/01/29 00:20:33;;;;;;;107.13;24.90;;;;;;;;;;5030501;28;20029;-74
2023/01/29 00:22:59;;;;;;;122.45;27.75;;;;;;;;;;5031721;28;20045;-75
2023/01/29 00:25:25;;;;;;;112.68;28.75;;;;;;;;;;5031705;28;20117;-73
2023/01/29 00:27:51;;;;;;;151.07;35.65;;;;;;;;;;5031788;28;20032;-74
2023/01/29 00:30:18;;;;;;;78.40;21.20;;;;;;;;;;5031664;28;20545;-74
2023/01/29 00:32:44;;;;;;;90.43;25.92;;;;;;;;;;5030611;28;20080;-74
2023/01/29 00:35:10;;;;;;;62.50;17.58;;;;;;;;;;5031496;28;20041;-72
2023/01/29 00:37:36;;;;;;;89.60;22.42;;;;;;;;;;5030129;28;20418;-74
2023/01/29 00:40:03;;;;;;;106.50;27.73;;;;;;;;;;5030353;28;20029;-74
2023/01/29 00:45:14;;;;;;;83.57;23.70;;;;;;;;;;5032253;28;20517;-73
2023/01/29 00:47:40;;;;;;;59.35;18.58;;;;;;;;;;5032016;28;20120;-74
2023/01/29 00:50:07;;;;;;;67.10;20.50;;;;;;;;;;5033381;28;20087;-75
2023/01/29 00:52:35;;;;;;;64.93;19.00;;;;;;;;;;5033904;28;20045;-74
2023/01/29 00:55:01;;;;;;;64.47;19.95;;;;;;;;;;5032507;28;20026;-75
2023/01/29 00:57:29;;;;;;;55.28;16.55;;;;;;;;;;5033622;28;20507;-75
2023/01/29 00:59:54;;;;;;;37.65;14.52;;;;;;;;;;5032252;28;20412;-75
2023/01/29 01:05:06;;;;;;;24.60;9.57;;;;;;;;;;5030195;28;20067;-75
2023/01/29 01:07:32;;;;;;;50.40;19.80;;;;;;;;;;5031208;28;20061;-76
2023/01/29 01:12:44;;;;;;;54.45;19.33;;;;;;;;;;5029832;28;20041;-75
2023/01/29 01:15:10;;;;;;;55.67;20.15;;;;;;;;;;5030176;28;20051;-74
2023/01/29 01:17:37;;;;;;;60.22;19.20;;;;;;;;;;5030952;28;20709;-74
2023/01/29 01:20:03;;;;;;;58.42;18.25;;;;;;;;;;5029334;28;20120;-75
2023/01/29 01:22:30;;;;;;;61.75;21.15;;;;;;;;;;5030563;28;20071;-75
2023/01/29 01:24:55;;;;;;;55.22;18.48;;;;;;;;;;5012869;28;20411;-74
2023/01/29 01:27:21;;;;;;;54.05;20.02;;;;;;;;;;5029171;28;20132;-74
2023/01/29 01:29:47;;;;;;;60.03;20.13;;;;;;;;;;5030510;28;20338;-75
2023/01/29 01:32:14;;;;;;;62.33;20.38;;;;;;;;;;5030350;28;20060;-75
2023/01/29 01:34:40;;;;;;;58.60;20.45;;;;;;;;;;5029083;28;20035;-75
2023/01/29 01:37:06;;;;;;;69.10;21.92;;;;;;;;;;5030098;28;20088;-74
2023/01/29 01:39:33;;;;;;;57.33;20.98;;;;;;;;;;5012629;28;20045;-75
2023/01/29 01:41:59;;;;;;;55.75;20.75;;;;;;;;;;5029083;28;20036;-75
2023/01/29 01:44:43;;;;;;;60.75;19.25;;;;;;;;;;5029920;28;20041;-74
2023/01/29 01:47:09;;;;;;;44.20;16.00;;;;;;;;;;5030187;28;20463;-74
2023/01/29 01:49:35;;;;;;;48.88;17.25;;;;;;;;;;5029843;28;20048;-73
2023/01/29 01:52:01;;;;;;;60.78;19.33;;;;;;;;;;5030193;28;20439;-74
2023/01/29 01:54:29;;;;;;;51.97;19.10;;;;;;;;;;5028581;28;20033;-74
2023/01/29 01:57:07;;;;;;;52.58;19.58;;;;;;;;;;5028641;28;20045;-75
2023/01/29 01:59:37;;;;;;;29.92;14.30;;;;;;;;;;4997114;28;20037;-74
2023/01/29 02:10:18;;;;;;;26.33;10.65;;;;;;;;;;5040661;28;20045;-74
2023/01/29 02:12:44;;;;;;;28.60;13.52;;;;;;;;;;5043033;28;20031;-74
2023/01/29 02:15:10;;;;;;;12.05;8.75;;;;;;;;;;5041531;28;20045;-74
2023/01/29 02:17:36;;;;;;;12.63;9.35;;;;;;;;;;5041859;28;20527;-73
2023/01/29 02:20:06;;;;;;;40.63;16.80;;;;;;;;;;5038992;28;20033;-76
2023/01/29 02:22:40;;;;;;;25.50;13.05;;;;;;;;;;5013909;28;20041;-73
2023/01/29 02:25:22;;;;;;;34.70;14.38;;;;;;;;;;5044859;28;20521;-73
2023/01/29 02:27:55;;;;;;;21.63;9.80;;;;;;;;;;5029804;28;20102;-73
2023/01/29 02:30:29;;;;;;;38.40;16.73;;;;;;;;;;5044738;28;20479;-74
2023/01/29 02:33:00;;;;;;;30.90;14.23;;;;;;;;;;5044909;28;20033;-74
2023/01/29 02:35:36;;;;;;;19.85;9.63;;;;;;;;;;5027821;28;20033;-75
2023/01/29 02:38:02;;;;;;;33.75;14.00;;;;;;;;;;5029517;28;20042;-74
2023/01/29 02:40:43;;;;;;;22.38;13.15;;;;;;;;;;5028935;28;20128;-74
2023/01/29 02:43:09;;;;;;;18.27;9.40;;;;;;;;;;5029422;28;20033;-73
2023/01/29 02:45:42;;;;;;;22.35;13.73;;;;;;;;;;5027745;28;20560;-73
2023/01/29 02:48:08;;;;;;;25.80;14.38;;;;;;;;;;5029094;28;20045;-73
2023/01/29 02:50:41;;;;;;;20.55;13.23;;;;;;;;;;5028930;28;20683;-73
2023/01/29 02:53:11;;;;;;;21.98;13.85;;;;;;;;;;4995124;28;20040;-73
2023/01/29 02:55:39;;;;;;;22.25;13.00;;;;;;;;;;5027538;28;20032;-73
2023/01/29 02:58:14;;;;;;;15.13;10.82;;;;;;;;;;4994980;28;20208;-73
2023/01/29 03:00:41;;;;;;;20.15;13.57;;;;;;;;;;5044227;28;20231;-74
2023/01/29 03:03:15;;;;;;;16.65;10.75;;;;;;;;;;5027806;28;20500;-75
2023/01/29 03:05:49;;;;;;;16.05;11.90;;;;;;;;;;5027628;28;20068;-73
2023/01/29 03:08:19;;;;;;;16.05;11.57;;;;;;;;;;5011847;28;20408;-73
2023/01/29 03:10:47;;;;;;;5.53;5.13;;;;;;;;;;5044073;28;20057;-74
2023/01/29 03:13:16;;;;;;;11.68;9.57;;;;;;;;;;5027661;28;20041;-73
2023/01/29 03:15:46;;;;;;;16.63;11.60;;;;;;;;;;5011420;28;20044;-74
2023/01/29 03:18:35;;;;;;;11.45;8.93;;;;;;;;;;5013701;28;20056;-74
2023/01/29 03:21:48;;;;;;;14.75;10.98;;;;;;;;;;5011693;28;20033;-74
2023/01/29 03:32:07;;;;;;;13.20;9.95;;;;;;;;;;5031179;28;20092;-75
2023/01/29 03:34:45;;;;;;;11.45;8.70;;;;;;;;;;5048166;28;20047;-74
2023/01/29 03:37:14;;;;;;;9.15;7.28;;;;;;;;;;5031057;28;20049;-74
2023/01/29 03:39:40;;;;;;;8.77;7.82;;;;;;;;;;5032420;28;20041;-74
2023/01/29 03:42:16;;;;;;;9.77;7.43;;;;;;;;;;5032414;28;20029;-74
2023/01/29 03:44:53;;;;;;;7.10;6.38;;;;;;;;;;5031124;28;20041;-74
2023/01/29 03:47:46;;;;;;;5.85;5.30;;;;;;;;;;4999148;28;20411;-73
2023/01/29 03:50:27;;;;;;;8.02;7.25;;;;;;;;;;5001863;28;20041;-74
2023/01/29 03:52:54;;;;;;;;;;;;;;;;;;5016875;28;20041;-74
2023/01/29 03:55:25;;;;;;;7.38;6.00;;;;;;;;;;5032515;28;20375;-74
2023/01/29 03:57:57;;;;;;;8.20;7.10;;;;;;;;;;5047759;28;20049;-75
2023/01/29 04:00:53;;;;;;;9.52;8.32;;;;;;;;;;5047625;28;20455;-74
2023/01/29 04:03:20;;;;;;;10.90;8.65;;;;;;;;;;5018420;28;20530;-74
2023/01/29 04:05:51;;;;;;;12.65;9.15;;;;;;;;;;5047521;28;20535;-74
2023/01/29 04:08:24;;;;;;;8.32;7.57;;;;;;;;;;5030888;28;20092;-74
2023/01/29 04:10:50;;;;;;;7.78;7.07;;;;;;;;;;5030610;28;20041;-74
2023/01/29 04:13:16;;;;;;;19.20;8.82;;;;;;;;;;5030648;28;20573;-73
2023/01/29 04:15:48;;;;;;;8.85;7.47;;;;;;;;;;5047318;28;20119;-74
2023/01/29 04:18:15;;;;;;;10.00;8.20;;;;;;;;;;5014279;28;20508;-74
2023/01/29 04:20:59;;;;;;;7.40;5.80;;;;;;;;;;5027976;28;20034;-74
2023/01/29 04:23:26;;;;;;;6.13;5.43;;;;;;;;;;5030371;28;20399;-75
2023/01/29 04:26:13;;;;;;;6.43;4.32;;;;;;;;;;5030274;28;20029;-73
2023/01/29 04:28:50;;;;;;;4.07;3.33;;;;;;;;;;5000405;28;20053;-73
2023/01/29 04:31:17;;;;;;;5.18;4.68;;;;;;;;;;5030408;28;20132;-74
2023/01/29 04:33:55;;;;;;;3.78;3.47;;;;;;;;;;5031162;28;20048;-73
2023/01/29 04:36:24;;;;;;;5.03;4.13;;;;;;;;;;5030213;28;20582;-74
2023/01/29 04:38:51;;;;;;;4.75;4.35;;;;;;;;;;5029971;28;20132;-74
2023/01/29 04:41:17;;;;;;;4.53;4.13;;;;;;;;;;5031423;28;20044;-74
2023/01/29 04:44:03;;;;;;;6.78;5.32;;;;;;;;;;5031225;28;20132;-74
2023/01/29 04:46:34;;;;;;;9.23;5.63;;;;;;;;;;5030874;28;20037;-73
2023/01/29 04:49:04;;;;;;;4.57;4.13;;;;;;;;;;5030036;28;20091;-74
2023/01/29 04:51:33;;;;;;;6.78;5.57;;;;;;;;;;5046713;28;20530;-74
2023/01/29 04:54:01;;;;;;;7.20;5.85;;;;;;;;;;5046473;28;20038;-74
2023/01/29 04:56:39;;;;;;;7.80;6.55;;;;;;;;;;5031160;28;20567;-73
2023/01/29 04:59:09;;;;;;;8.05;6.38;;;;;;;;;;5029796;28;20056;-74
2023/01/29 05:01:35;;;;;;;5.93;5.28;;;;;;;;;;5013170;28;20026;-73
2023/01/29 05:04:01;;;;;;;7.60;6.20;;;;;;;;;;5029722;28;20075;-73
2023/01/29 05:06:28;;;;;;;7.20;6.60;;;;;;;;;;5046230;28;20033;-74
2023/01/29 05:08:54;;;;;;;5.00;4.50;;;;;;;;;;5030968;28;20103;-73
2023/01/29 05:11:20;;;;;;;6.75;6.10;;;;;;;;;;5029588;28;20137;-74
2023/01/29 05:13:46;;;;;;;8.27;7.47;;;;;;;;;;5029417;28;20033;-73
2023/01/29 05:16:18;;;;;;;12.05;6.28;;;;;;;;;;5046068;28;20037;-73
2023/01/29 05:18:44;;;;;;;;;;;;;;;;;;5029620;28;20404;-75
2023/01/29 05:21:10;;;;;;;6.97;6.03;;;;;;;;;;5030448;28;19979;-74
2023/01/29 05:23:36;;;;;;;6.20;5.63;;;;;;;;;;5030339;28;20082;-72
2023/01/29 05:26:02;;;;;;;7.28;6.50;;;;;;;;;;5030588;28;20033;-73
2023/01/29 05:28:28;;;;;;;8.00;5.88;;;;;;;;;;5029347;28;20057;-73
2023/01/29 05:30:55;;;;;;;5.78;5.30;;;;;;;;;;5030383;28;20053;-73
2023/01/29 05:33:22;;;;;;;5.20;4.70;;;;;;;;;;5030719;28;20056;-74
2023/01/29 05:35:48;;;;;;;5.75;5.25;;;;;;;;;;5045634;28;20053;-74
2023/01/29 05:38:15;;;;;;;5.50;5.00;;;;;;;;;;5030607;28;20061;-74
2023/01/29 05:40:41;;;;;;;5.10;4.70;;;;;;;;;;5029345;28;20036;-74
2023/01/29 05:43:17;;;;;;;5.13;4.63;;;;;;;;;;5030227;28;20573;-74
2023/01/29 05:45:42;;;;;;;5.20;4.70;;;;;;;;;;5028602;28;20500;-74
2023/01/29 05:48:09;;;;;;;7.00;5.80;;;;;;;;;;5029911;28;20045;-75
2023/01/29 05:50:35;;;;;;;6.07;5.47;;;;;;;;;;5029890;28;20037;-74
2023/01/29 05:53:01;;;;;;;5.90;5.30;;;;;;;;;;5029977;28;20045;-75
2023/01/29 05:55:28;;;;;;;4.32;4.05;;;;;;;;;;5029921;28;20460;-74
2023/01/29 05:57:54;;;;;;;8.13;7.35;;;;;;;;;;5029806;28;20049;-74
2023/01/29 06:00:20;;;;;;;7.53;6.82;;;;;;;;;;5045157;28;20029;-74
2023/01/29 06:02:46;;;;;;;6.70;6.20;;;;;;;;;;5029561;28;20038;-74
2023/01/29 06:05:12;;;;;;;7.30;6.68;;;;;;;;;;5029586;28;20142;-74
2023/01/29 06:07:43;;;;;;;5.95;5.38;;;;;;;;;;5029617;28;20038;-75
2023/01/29 06:10:13;;;;;;;5.97;5.47;;;;;;;;;;5029781;28;20041;-74
2023/01/29 06:12:39;;;;;;;6.05;5.45;;;;;;;;;;5028067;28;20038;-75
2023/01/29 06:15:05;;;;;;;6.43;5.18;;;;;;;;;;5028003;28;20033;-75
2023/01/29 06:17:31;;;;;;;6.18;5.57;;;;;;;;;;5027125;28;20048;-75
2023/01/29 06:19:57;;;;;;;4.75;4.40;;;;;;;;;;5027709;28;20037;-74
2023/01/29 06:22:23;;;;;;;6.45;5.85;;;;;;;;;;5027616;28;20033;-75
2023/01/29 06:24:49;;;;;;;6.43;5.85;;;;;;;;;;5042519;28;20040;-75
2023/01/29 06:27:15;;;;;;;6.95;6.25;;;;;;;;;;5059257;28;20037;-75
2023/01/29 06:29:42;;;;;;;5.70;5.28;;;;;;;;;;5026072;28;20456;-75
2023/01/29 06:32:08;;;;;;;5.55;4.88;;;;;;;;;;5028301;28;20127;-74
2023/01/29 06:34:34;;;;;;;5.18;4.70;;;;;;;;;;5028981;28;20056;-75
2023/01/29 06:37:00;;;;;;;5.88;5.28;;;;;;;;;;5029589;28;20053;-76
2023/01/29 06:39:26;;;;;;;7.22;5.85;;;;;;;;;;5030277;28;20083;-75
2023/01/29 06:41:52;;;;;;;5.90;5.40;;;;;;;;;;5028500;28;20045;-76
2023/01/29 06:44:18;;;;;;;4.68;3.85;;;;;;;;;;5029121;28;20041;-75
2023/01/29 06:46:44;;;;;;;7.70;6.80;;;;;;;;;;5022366;28;20116;-75
2023/01/29 06:49:10;;;;;;;7.38;6.45;;;;;;;;;;5023412;28;20108;-76
2023/01/29 06:51:36;;;;;;;7.70;7.00;;;;;;;;;;5014544;28;20041;-75
2023/01/29 06:54:02;;;;;;;7.35;6.63;;;;;;;;;;5018450;28;20064;-74
2023/01/29 06:56:28;;;;;;;8.48;7.28;;;;;;;;;;5014286;28;20037;-75
2023/01/29 06:58:54;;;;;;;7.50;6.78;;;;;;;;;;5018581;28;20493;-75
2023/01/29 07:01:20;;;;;;;9.60;8.60;;;;;;;;;;5016994;28;20030;-75
2023/01/29 07:03:48;;;;;;;7.78;6.13;;;;;;;;;;5020739;28;20041;-76
2023/01/29 07:06:14;;;;;;;10.23;8.00;;;;;;;;;;5020711;28;20042;-76
2023/01/29 07:08:40;;;;;;;5.55;5.05;;;;;;;;;;5021541;28;20035;-75
2023/01/29 07:11:06;;;;;;;7.57;6.15;;;;;;;;;;5051994;28;20512;-75
2023/01/29 07:13:32;;;;;;;5.55;5.05;;;;;;;;;;5019658;28;20458;-79
2023/01/29 07:15:59;;;;;;;6.00;5.50;;;;;;;;;;5018607;28;20168;-78
2023/01/29 07:18:25;;;;;;;8.90;5.22;;;;;;;;;;5019996;28;20661;-78
2023/01/29 07:20:51;;;;;;;7.30;5.78;;;;;;;;;;5017400;28;20421;-78
2023/01/29 07:23:17;;;;;;;4.80;4.40;;;;;;;;;;5019414;28;20032;-75
2023/01/29 07:25:43;;;;;;;5.40;4.93;;;;;;;;;;5017741;28;20046;-76
2023/01/29 07:28:09;;;;;;;4.07;3.75;;;;;;;;;;5019928;28;20515;-76
2023/01/29 07:30:35;;;;;;;7.07;6.35;;;;;;;;;;5019710;28;20052;-76
2023/01/29 07:33:04;;;;;;;8.38;6.75;;;;;;;;;;5019618;28;20590;-75
2023/01/29 07:35:30;;;;;;;14.50;9.98;;;;;;;;;;5022251;28;20037;-75
2023/01/29 07:37:57;;;;;;;7.93;7.22;;;;;;;;;;5034057;28;20048;-75
2023/01/29 07:40:23;;;;;;;13.30;9.10;;;;;;;;;;5024544;28;20037;-74
2023/01/29 07:42:49;;;;;;;9.10;6.90;;;;;;;;;;5022685;28;20091;-75
2023/01/29 07:45:15;;;;;;;18.65;12.40;;;;;;;;;;5020028;28;20446;-75
2023/01/29 07:47:42;;;;;;;9.98;8.07;;;;;;;;;;5019445;28;20416;-75
2023/01/29 07:50:08;;;;;;;20.40;10.90;;;;;;;;;;5051046;28;20041;-76
2023/01/29 07:52:34;;;;;;;8.23;5.68;;;;;;;;;;5016051;28;20037;-76
2023/01/29 07:55:00;;;;;;;13.48;8.80;;;;;;;;;;5021441;28;20025;-75
2023/01/29 07:57:26;;;;;;;19.65;10.35;;;;;;;;;;5018900;28;20049;-75
2023/01/29 07:59:52;;;;;;;23.35;11.48;;;;;;;;;;5023277;28;20084;-74
2023/01/29 08:02:18;;;;;;;26.10;14.00;;;;;;;;;;5015185;28;20026;-74
2023/01/29 08:04:44;;;;;;;29.70;17.10;;;;;;;;;;5017286;28;20048;-74
2023/01/29 08:07:10;;;;;;;23.30;14.15;;;;;;;;;;5015399;28;20038;-74
2023/01/29 08:09:37;;;;;;;21.98;12.00;;;;;;;;;;5015384;28;20209;-74
2023/01/29 08:12:03;;;;;;;16.90;9.45;;;;;;;;;;5015463;28;20666;-74
2023/01/29 08:14:28;;;;;;;18.35;10.70;;;;;;;;;;5016448;28;20044;-74
2023/01/29 08:16:55;;;;;;;32.85;14.05;;;;;;;;;;5022885;28;20056;-75
2023/01/29 08:19:20;;;;;;;17.33;9.73;;;;;;;;;;5017643;28;20080;-75
2023/01/29 08:21:46;;;;;;;16.20;9.27;;;;;;;;;;5017172;28;20508;-77
2023/01/29 08:24:13;;;;;;;15.00;10.57;;;;;;;;;;5018745;28;20032;-75
2023/01/29 08:26:39;;;;;;;8.52;6.72;;;;;;;;;;5017046;28;20094;-75
2023/01/29 08:29:05;;;;;;;19.42;12.55;;;;;;;;;;5017826;28;20659;-74
2023/01/29 08:31:32;;;;;;;21.38;11.32;;;;;;;;;;5017319;28;20104;-75
2023/01/29 08:33:58;;;;;;;14.82;10.73;;;;;;;;;;5018639;28;20033;-75
2023/01/29 08:36:24;;;;;;;18.60;10.88;;;;;;;;;;5020432;28;20054;-77
2023/01/29 08:38:50;;;;;;;11.52;6.43;;;;;;;;;;5020179;28;20053;-76
2023/01/29 08:41:16;;;;;;;10.93;7.93;;;;;;;;;;5021407;28;20393;-76
2023/01/29 08:43:43;;;;;;;13.50;10.07;;;;;;;;;;5019961;28;20046;-74
2023/01/29 08:46:09;;;;;;;11.30;9.02;;;;;;;;;;5017620;28;20112;-75
2023/01/29 08:48:35;;;;;;;16.80;9.15;;;;;;;;;;5022061;28;20117;-74
2023/01/29 08:51:03;;;;;;;12.65;6.57;;;;;;;;;;5018342;28;20049;-74
2023/01/29 08:53:29;;;;;;;15.77;11.02;;;;;;;;;;5016988;28;20037;-74
2023/01/29 08:55:55;;;;;;;11.40;7.15;;;;;;;;;;5019294;28;20034;-76
2023/01/29 08:58:21;;;;;;;13.57;6.88;;;;;;;;;;5018022;28;20052;-75
2023/01/29 09:00:47;;;;;;;8.68;7.00;;;;;;;;;;5035276;28;20026;-75
2023/01/29 09:03:13;;;;;;;6.00;5.15;;;;;;;;;;5025227;28;20038;-75
2023/01/29 09:05:39;;;;;;;10.27;7.13;;;;;;;;;;5031550;28;20026;-73
2023/01/29 09:08:05;;;;;;;9.15;6.70;;;;;;;;;;5027710;28;20045;-74
2023/01/29 09:10:31;;;;;;;6.45;5.40;;;;;;;;;;5012049;28;20350;-74
2023/01/29 09:12:56;;;;;;;6.82;5.60;;;;;;;;;;5032611;28;20072;-73
2023/01/29 09:15:22;;;;;;;4.38;4.03;;;;;;;;;;5019900;28;20116;-73
2023/01/29 09:17:48;;;;;;;5.80;4.10;;;;;;;;;;5024067;28;20048;-73
2023/01/29 09:20:14;;;;;;;8.63;6.68;;;;;;;;;;5029293;28;20590;-74
2023/01/29 09:22:40;;;;;;;4.40;4.07;;;;;;;;;;5017598;28;20064;-74
2023/01/29 09:25:07;;;;;;;5.20;4.70;;;;;;;;;;5019259;28;20184;-74
2023/01/29 09:27:33;;;;;;;4.20;3.80;;;;;;;;;;5019257;28;20515;-74
2023/01/29 09:29:59;;;;;;;5.97;4.60;;;;;;;;;;5017453;28;20477;-75
2023/01/29 09:32:25;;;;;;;3.83;3.53;;;;;;;;;;5018899;28;20095;-74
2023/01/29 09:34:51;;;;;;;4.05;3.65;;;;;;;;;;5020044;28;20049;-75
2023/01/29 09:37:17;;;;;;;3.10;2.88;;;;;;;;;;5016206;28;20096;-75
2023/01/29 09:39:43;;;;;;;6.28;5.25;;;;;;;;;;5017817;28;20593;-74
2023/01/29 09:42:19;;;;;;;3.10;2.90;;;;;;;;;;5015805;28;20038;-75
2023/01/29 09:44:54;;;;;;;5.38;4.25;;;;;;;;;;5016958;28;20125;-74
2023/01/29 09:47:20;;;;;;;3.47;3.17;;;;;;;;;;5015984;28;20029;-75
2023/01/29 09:49:47;;;;;;;4.43;4.03;;;;;;;;;;5032438;28;20025;-75
2023/01/29 09:52:26;;;;;;;2.53;2.42;;;;;;;;;;5021001;28;20043;-74
2023/01/29 09:54:55;;;;;;;4.70;4.30;;;;;;;;;;5016011;28;20466;-75
2023/01/29 09:57:32;;;;;;;4.78;4.47;;;;;;;;;;5019509;28;20042;-75
2023/01/29 09:59:58;;;;;;;3.75;3.40;;;;;;;;;;5022437;28;20034;-75
2023/01/29 10:02:49;;;;;;;4.18;3.88;;;;;;;;;;5019838;28;20531;-74
2023/01/29 10:05:33;;;;;;;3.95;3.65;;;;;;;;;;5019407;28;20036;-76
2023/01/29 10:08:18;;;;;;;9.20;3.83;;;;;;;;;;5026482;28;20131;-73
2023/01/29 10:10:49;;;;;;;3.85;3.45;;;;;;;;;;5021256;28;20055;-74
2023/01/29 10:13:25;;;;;;;4.13;3.83;;;;;;;;;;5036877;28;20545;-74
2023/01/29 10:15:52;;;;;;;4.55;4.13;;;;;;;;;;5020457;28;20042;-74
2023/01/29 10:18:32;;;;;;;2.00;1.90;;;;;;;;;;5020389;28;20080;-76
2023/01/29 10:21:14;;;;;;;3.22;2.70;;;;;;;;;;5024188;28;20029;-75
2023/01/29 10:24:02;;;;;;;3.10;2.90;;;;;;;;;;5018666;28;20034;-74
2023/01/29 10:26:28;;;;;;;1.90;1.83;;;;;;;;;;5017632;28;20435;-75
2023/01/29 10:28:54;;;;;;;7.72;4.15;;;;;;;;;;5027132;28;20528;-75
2023/01/29 10:31:26;;;;;;;2.70;2.50;;;;;;;;;;5021024;28;20030;-74
2023/01/29 10:34:03;;;;;;;3.72;3.42;;;;;;;;;;5025343;28;20492;-75
2023/01/29 10:36:41;;;;;;;4.72;3.80;;;;;;;;;;5035098;28;20057;-75
2023/01/29 10:39:17;;;;;;;3.40;3.10;;;;;;;;;;5013989;28;20057;-74
2023/01/29 10:41:47;;;;;;;4.93;4.05;;;;;;;;;;5050475;28;20533;-74
2023/01/29 10:44:16;;;;;;;3.28;3.08;;;;;;;;;;5017921;28;20087;-76
2023/01/29 10:46:45;;;;;;;2.45;2.35;;;;;;;;;;5015813;28;20044;-74
2023/01/29 10:49:14;;;;;;;4.05;3.35;;;;;;;;;;5018659;28;20038;-74
2023/01/29 10:51:40;;;;;;;4.72;4.35;;;;;;;;;;5018247;28;20030;-74
2023/01/29 10:54:19;;;;;;;3.45;3.22;;;;;;;;;;5016621;28;20036;-74
2023/01/29 10:57:08;;;;;;;3.97;3.63;;;;;;;;;;5014912;28;20080;-74
2023/01/29 10:59:50;;;;;;;3.80;3.50;;;;;;;;;;5038418;28;20508;-74
2023/01/29 11:02:17;;;;;;;3.65;3.15;;;;;;;;;;5021044;28;20035;-73
2023/01/29 11:04:43;;;;;;;2.85;2.65;;;;;;;;;;5044053;28;20480;-75
2023/01/29 11:07:10;;;;;;;5.22;4.32;;;;;;;;;;5016730;28;20044;-76
2023/01/29 11:09:35;;;;;;;4.72;4.30;;;;;;;;;;5018593;28;20030;-78
2023/01/29 11:12:25;;;;;;;4.93;3.55;;;;;;;;;;5018588;28;20408;-77
2023/01/29 11:14:55;;;;;;;4.70;4.30;;;;;;;;;;5015977;28;21081;-76
2023/01/29 11:17:22;;;;;;;4.05;3.75;;;;;;;;;;5016176;28;20037;-74
2023/01/29 11:19:52;;;;;;;2.92;2.72;;;;;;;;;;5015948;28;20033;-76
2023/01/29 11:22:27;;;;;;;3.55;3.25;;;;;;;;;;5016573;28;20505;-76
2023/01/29 11:25:31;;;;;;;2.75;2.63;;;;;;;;;;5019889;28;20034;-75
2023/01/29 11:28:00;;;;;;;3.85;3.55;;;;;;;;;;4976960;28;20085;-76
2023/01/29 11:30:34;;;;;;;5.05;3.40;;;;;;;;;;5019156;28;20042;-76
2023/01/29 11:33:11;;;;;;;3.53;3.22;;;;;;;;;;5030025;28;20033;-76
2023/01/29 11:35:37;;;;;;;3.45;3.15;;;;;;;;;;5042706;28;20061;-73
2023/01/29 11:38:17;;;;;;;3.95;3.65;;;;;;;;;;5023549;28;20631;-74
2023/01/29 11:40:43;;;;;;;3.90;3.60;;;;;;;;;;5022853;28;20077;-74
2023/01/29 11:43:19;;;;;;;3.63;2.95;;;;;;;;;;5025220;28;20022;-73
2023/01/29 11:45:46;;;;;;;4.07;3.70;;;;;;;;;;5024128;28;20068;-75
2023/01/29 11:48:18;;;;;;;2.97;2.78;;;;;;;;;;5027867;28;20025;-74
2023/01/29 11:50:55;;;;;;;3.50;3.25;;;;;;;;;;5021703;28;20448;-74
2023/01/29 11:53:34;;;;;;;3.83;3.53;;;;;;;;;;5023413;28;20033;-76
2023/01/29 11:56:02;;;;;;;4.63;4.18;;;;;;;;;;5036917;28;20492;-76
2023/01/29 11:58:28;;;;;;;3.00;2.88;;;;;;;;;;5018712;28;20520;-75
2023/01/29 12:00:54;;;;;;;6.10;4.93;;;;;;;;;;5020345;28;20064;-75
2023/01/29 12:03:21;;;;;;;4.40;4.07;;;;;;;;;;5026321;28;20102;-75
2023/01/29 12:06:01;;;;;;;3.05;2.85;;;;;;;;;;5022732;28;20048;-76
2023/01/29 12:08:30;;;;;;;4.35;4.03;;;;;;;;;;5030010;28;20069;-76
2023/01/29 12:11:16;;;;;;;4.07;3.70;;;;;;;;;;5035101;28;20394;-74
2023/01/29 12:13:44;;;;;;;2.72;2.53;;;;;;;;;;5022165;28;20529;-74
2023/01/29 12:16:17;;;;;;;8.10;5.30;;;;;;;;;;5038135;28;20499;-77
2023/01/29 12:18:47;;;;;;;2.45;2.28;;;;;;;;;;5035251;28;20037;-76
2023/01/29 12:21:17;;;;;;;7.40;5.00;;;;;;;;;;5031044;28;20061;-75
2023/01/29 12:23:43;;;;;;;6.80;4.57;;;;;;;;;;5012149;28;20040;-75
2023/01/29 12:26:12;;;;;;;5.20;4.72;;;;;;;;;;5031052;28;20363;-75
2023/01/29 12:28:41;;;;;;;7.68;5.00;;;;;;;;;;5028713;28;20029;-75
2023/01/29 12:31:16;;;;;;;4.20;3.45;;;;;;;;;;5029536;28;20060;-75
2023/01/29 12:34:00;;;;;;;6.15;5.55;;;;;;;;;;5037178;28;20035;-76
2023/01/29 12:36:28;;;;;;;6.28;4.43;;;;;;;;;;5035819;28;20077;-76
2023/01/29 12:38:54;;;;;;;5.07;4.68;;;;;;;;;;5030359;28;20512;-77
2023/01/29 12:41:51;;;;;;;5.47;4.88;;;;;;;;;;5042694;28;20503;-77
2023/01/29 12:44:20;;;;;;;6.03;4.78;;;;;;;;;;5014607;28;20551;-76
2023/01/29 12:46:49;;;;;;;5.88;5.35;;;;;;;;;;5025911;28;20030;-76
2023/01/29 12:49:17;;;;;;;6.75;4.88;;;;;;;;;;5038831;28;20041;-77
2023/01/29 12:51:48;;;;;;;6.78;6.15;;;;;;;;;;5017679;28;20038;-77
2023/01/29 12:54:16;;;;;;;4.00;3.70;;;;;;;;;;5019477;28;20489;-77
2023/01/29 12:56:48;;;;;;;4.60;4.20;;;;;;;;;;5017353;28;20034;-75
2023/01/29 12:59:14;;;;;;;5.63;5.03;;;;;;;;;;5015013;28;20041;-78
2023/01/29 13:02:09;;;;;;;5.90;5.35;;;;;;;;;;5018297;28;20021;-76
2023/01/29 13:04:37;;;;;;;8.35;5.63;;;;;;;;;;4962125;28;20573;-75
2023/01/29 13:07:20;;;;;;;5.97;5.05;;;;;;;;;;5026788;28;20041;-76
2023/01/29 13:09:49;;;;;;;6.45;5.80;;;;;;;;;;5034219;28;20500;-76
2023/01/29 13:12:16;;;;;;;9.20;5.72;;;;;;;;;;5051707;28;20033;-76
2023/01/29 13:14:48;;;;;;;8.13;7.32;;;;;;;;;;5029398;28;20462;-76
2023/01/29 13:17:17;;;;;;;5.38;4.60;;;;;;;;;;5030059;28;20037;-75
2023/01/29 13:19:46;;;;;;;9.27;6.00;;;;;;;;;;5030159;28;20033;-77
2023/01/29 13:22:19;;;;;;;7.22;5.40;;;;;;;;;;5029962;28;20036;-76
2023/01/29 13:24:45;;;;;;;6.28;5.05;;;;;;;;;;5029186;28;20410;-77
2023/01/29 13:27:17;;;;;;;5.95;5.25;;;;;;;;;;5045176;28;20036;-77
2023/01/29 13:29:44;;;;;;;6.47;5.78;;;;;;;;;;5029205;28;20056;-77
2023/01/29 13:32:10;;;;;;;8.48;6.93;;;;;;;;;;5028189;28;20124;-77
2023/01/29 13:34:45;;;;;;;6.45;5.85;;;;;;;;;;5030380;28;20037;-76
2023/01/29 13:37:15;;;;;;;12.25;7.45;;;;;;;;;;5012124;28;20424;-77
2023/01/29 13:39:45;;;;;;;9.50;8.48;;;;;;;;;;5030422;28;20029;-77
2023/01/29 13:42:34;;;;;;;9.65;7.13;;;;;;;;;;5030054;28;20099;-76
2023/01/29 13:45:00;;;;;;;7.38;6.45;;;;;;;;;;5028857;28;20470;-77
2023/01/29 13:47:27;;;;;;;5.95;5.35;;;;;;;;;;5028897;28;20051;-77
2023/01/29 13:49:55;;;;;;;7.93;6.32;;;;;;;;;;5028923;28;20045;-77
2023/01/29 13:52:30;;;;;;;8.20;5.95;;;;;;;;;;5030274;28;20045;-76
2023/01/29 13:55:05;;;;;;;10.55;6.63;;;;;;;;;;5029843;28;20037;-77
2023/01/29 13:57:43;;;;;;;7.55;6.78;;;;;;;;;;5029905;28;20049;-77
2023/01/29 14:00:30;;;;;;;9.73;8.70;;;;;;;;;;5030038;28;20064;-76
2023/01/29 14:02:59;;;;;;;12.07;7.43;;;;;;;;;;5021639;28;20073;-77
2023/01/29 14:05:32;;;;;;;13.02;8.23;;;;;;;;;;5034231;28;20036;-78
2023/01/29 14:07:59;;;;;;;6.75;5.95;;;;;;;;;;5027696;28;20029;-77
2023/01/29 14:10:29;;;;;;;12.38;8.88;;;;;;;;;;5028490;28;20041;-76
2023/01/29 14:13:10;;;;;;;7.95;5.95;;;;;;;;;;5028407;28;20033;-77
2023/01/29 14:15:37;;;;;;;9.10;7.05;;;;;;;;;;5029722;28;20412;-77
2023/01/29 14:18:12;;;;;;;5.93;5.35;;;;;;;;;;5028222;28;20069;-78
2023/01/29 14:20:38;;;;;;;10.52;8.25;;;;;;;;;;5029652;28;20049;-77
2023/01/29 14:23:04;;;;;;;13.77;7.82;;;;;;;;;;5029436;28;20538;-76
2023/01/29 14:25:31;;;;;;;7.55;6.55;;;;;;;;;;5029657;28;20045;-77
2023/01/29 14:27:58;;;;;;;8.68;6.15;;;;;;;;;;5029423;28;20049;-77
2023/01/29 14:30:24;;;;;;;13.52;9.57;;;;;;;;;;5028005;28;20060;-76
2023/01/29 14:32:53;;;;;;;10.35;8.23;;;;;;;;;;5028163;28;20041;-78
2023/01/29 14:35:22;;;;;;;5.88;5.28;;;;;;;;;;5027809;28;20643;-78
2023/01/29 14:37:52;;;;;;;10.70;8.20;;;;;;;;;;5029367;28;20132;-79
2023/01/29 14:40:17;;;;;;;11.43;7.85;;;;;;;;;;5029200;28;20481;-78
2023/01/29 14:42:46;;;;;;;10.63;8.30;;;;;;;;;;5029409;28;20493;-78
2023/01/29 14:45:12;;;;;;;13.68;8.18;;;;;;;;;;5029148;28;20041;-78
2023/01/29 14:47:38;;;;;;;8.35;6.88;;;;;;;;;;5029273;28;20038;-79
2023/01/29 14:50:23;;;;;;;8.85;5.43;;;;;;;;;;5029168;28;20037;-77
2023/01/29 14:52:49;;;;;;;7.88;6.25;;;;;;;;;;5029131;28;20043;-78
2023/01/29 14:55:27;;;;;;;9.13;6.55;;;;;;;;;;5011329;28;20083;-77
2023/01/29 14:57:53;;;;;;;8.27;5.72;;;;;;;;;;5029197;28;20049;-78
2023/01/29 15:00:26;;;;;;;7.85;7.00;;;;;;;;;;5028966;28;20870;-77
2023/01/29 15:02:52;;;;;;;9.40;8.25;;;;;;;;;;5011333;28;20037;-78
2023/01/29 15:05:19;;;;;;;9.00;8.00;;;;;;;;;;5028835;28;20038;-78
2023/01/29 15:07:51;;;;;;;10.30;7.22;;;;;;;;;;5027654;28;20459;-78
2023/01/29 15:10:22;;;;;;;11.25;8.73;;;;;;;;;;5028689;28;20037;-78
2023/01/29 15:12:54;;;;;;;6.38;5.75;;;;;;;;;;5027763;28;20520;-79
2023/01/29 15:15:23;;;;;;;9.07;8.13;;;;;;;;;;5028254;28;20038;-78